createdAt,value
2022-08-26T00:01:10.673Z,97971.66
2022-08-26T00:03:16.474Z,97962.84
2022-08-26T00:05:24.263Z,97959.19
2022-08-26T00:07:29.172Z,97965.66
2022-08-26T00:09:37.267Z,97964.75
2022-08-26T00:11:44.141Z,97963.09
2022-08-26T00:13:49.663Z,97969.03
2022-08-26T00:15:54.687Z,97964.47
2022-08-26T00:18:00.577Z,97969.25
2022-08-26T00:20:06.285Z,97963.94
2022-08-26T00:22:14.095Z,97960.47
2022-08-26T00:24:26.591Z,97959.06
2022-08-26T00:26:33.661Z,97961.38
2022-08-26T00:28:38.529Z,97964.16
2022-08-26T00:30:48.143Z,97961.50
2022-08-26T00:32:57.003Z,97955.97
2022-08-26T00:35:01.904Z,97953.78
2022-08-26T00:37:08.946Z,97960.38
2022-08-26T00:39:17.924Z,97959.00
2022-08-26T00:41:23.646Z,97965.75
2022-08-26T00:43:29.097Z,97962.03
2022-08-26T00:45:41.090Z,97969.72
2022-08-26T00:47:50.767Z,97969.94
2022-08-26T00:49:56.725Z,97971.66
2022-08-26T00:52:05.142Z,97966.94
2022-08-26T00:54:19.176Z,97964.72
2022-08-26T00:56:29.455Z,97972.00
2022-08-26T00:58:36.665Z,97970.03
2022-08-26T01:00:41.778Z,97977.16
2022-08-26T01:02:51.832Z,97972.00
2022-08-26T01:04:58.987Z,97971.03
2022-08-26T01:07:06.447Z,97979.66
2022-08-26T01:09:11.937Z,97970.88
2022-08-26T01:11:19.573Z,97975.75
2022-08-26T01:13:24.644Z,97972.25
2022-08-26T01:15:33.388Z,97972.91
2022-08-26T01:17:40.225Z,97968.59
2022-08-26T01:19:48.775Z,97972.09
2022-08-26T01:21:59.748Z,97966.13
2022-08-26T01:24:08.406Z,97968.06
2022-08-26T01:26:20.218Z,97966.38
2022-08-26T01:28:30.274Z,97965.56
2022-08-26T01:30:36.853Z,97966.69
2022-08-26T01:32:43.232Z,97973.97
2022-08-26T01:34:50.059Z,97967.84
2022-08-26T01:37:01.188Z,97972.28
2022-08-26T01:39:10.211Z,97969.25
2022-08-26T01:41:19.981Z,97960.59
2022-08-26T01:43:35.724Z,97972.34
2022-08-26T01:45:43.794Z,97968.69
2022-08-26T01:47:56.463Z,97965.22
2022-08-26T01:50:04.990Z,97965.22
2022-08-26T01:52:11.329Z,97966.78
2022-08-26T01:54:20.657Z,97960.78
2022-08-26T01:56:33.266Z,97963.31
2022-08-26T01:58:45.733Z,97964.97
2022-08-26T02:00:51.429Z,97968.63
2022-08-26T02:03:12.837Z,97964.44
2022-08-26T02:05:22.774Z,97961.09
2022-08-26T02:07:29.137Z,97961.22
2022-08-26T02:09:41.305Z,97969.03
2022-08-26T02:11:47.190Z,97959.41
2022-08-26T02:13:56.983Z,97965.97
2022-08-26T02:16:05.362Z,97964.63
2022-08-26T02:18:14.317Z,97962.91
2022-08-26T02:20:21.966Z,97958.47
2022-08-26T02:22:27.175Z,97964.44
2022-08-26T02:24:49.517Z,97963.19
2022-08-26T02:26:55.372Z,97966.13
2022-08-26T02:29:10.218Z,97976.47
2022-08-26T02:31:15.614Z,97980.28
2022-08-26T02:33:20.644Z,97972.75
2022-08-26T02:35:26.681Z,97968.72
2022-08-26T02:37:34.032Z,97972.06
2022-08-26T02:39:44.009Z,97976.28
2022-08-26T02:41:49.410Z,97974.19
2022-08-26T02:43:54.276Z,97970.28
2022-08-26T02:46:01.729Z,97971.94
2022-08-26T02:48:13.575Z,97968.75
2022-08-26T02:50:18.375Z,97963.28
2022-08-26T02:52:23.601Z,97958.00
2022-08-26T02:54:28.214Z,97958.28
2022-08-26T02:56:36.339Z,97959.94
2022-08-26T02:58:41.370Z,97966.34
2022-08-26T03:00:53.006Z,97963.88
2022-08-26T03:02:58.669Z,97959.13
2022-08-26T03:05:03.529Z,97968.75
2022-08-26T03:07:09.550Z,97957.44
2022-08-26T03:09:18.823Z,97961.78
2022-08-26T03:11:24.023Z,97958.31
2022-08-26T03:13:32.935Z,97957.19
2022-08-26T03:15:38.504Z,97957.88
2022-08-26T03:17:43.764Z,97950.66
2022-08-26T03:19:51.819Z,97957.59
2022-08-26T03:21:59.210Z,97946.31
2022-08-26T03:24:04.112Z,97944.94
2022-08-26T03:26:11.041Z,97943.25
2022-08-26T03:28:15.998Z,97947.69
2022-08-26T03:30:39.282Z,97945.75
2022-08-26T03:32:50.407Z,97948.41
2022-08-26T03:34:55.406Z,97941.16
2022-08-26T03:37:00.658Z,97942.00
2022-08-26T03:39:05.625Z,97938.50
2022-08-26T03:41:12.406Z,97942.13
2022-08-26T03:43:18.813Z,97942.13
2022-08-26T03:45:26.456Z,97935.16
2022-08-26T03:47:31.353Z,97937.94
2022-08-26T03:49:37.042Z,97937.94
2022-08-26T03:51:42.238Z,97939.63
2022-08-26T03:53:47.365Z,97939.22
2022-08-26T03:55:53.196Z,97937.69
2022-08-26T03:57:58.121Z,97936.16
2022-08-26T04:00:02.997Z,97937.41
2022-08-26T04:02:16.298Z,97934.50
2022-08-26T04:04:22.831Z,97935.72
2022-08-26T04:06:31.223Z,97934.06
2022-08-26T04:08:36.057Z,97939.47
2022-08-26T04:10:41.148Z,97942.97
2022-08-26T04:12:46.009Z,97940.75
2022-08-26T04:14:50.910Z,97936.28
2022-08-26T04:16:59.294Z,97938.78
2022-08-26T04:19:06.913Z,97942.41
2022-08-26T04:21:12.754Z,97933.22
2022-08-26T04:23:20.325Z,97937.53
2022-08-26T04:25:25.289Z,97936.69
2022-08-26T04:27:30.930Z,97940.59
2022-08-26T04:29:35.873Z,97932.25
2022-08-26T04:31:41.402Z,97930.97
2022-08-26T04:33:47.778Z,97943.22
2022-08-26T04:36:03.268Z,97939.63
2022-08-26T04:38:09.278Z,97941.03
2022-08-26T04:40:14.655Z,97942.69
2022-08-26T04:42:22.800Z,97945.63
2022-08-26T04:44:32.594Z,97935.84
2022-08-26T04:46:39.787Z,97940.16
2022-08-26T04:48:48.967Z,97943.41
2022-08-26T04:50:54.011Z,97938.22
2022-08-26T04:53:02.233Z,97945.19
2022-08-26T04:55:10.411Z,97944.06
2022-08-26T04:57:16.882Z,97950.63
2022-08-26T04:59:21.821Z,97946.88
2022-08-26T05:01:26.979Z,97958.28
2022-08-26T05:03:32.181Z,97959.00
2022-08-26T05:05:36.958Z,97955.50
2022-08-26T05:07:41.795Z,97961.38
2022-08-26T05:09:49.238Z,97950.06
2022-08-26T05:11:54.452Z,97962.59
2022-08-26T05:14:02.223Z,97960.22
2022-08-26T05:16:09.073Z,97959.81
2022-08-26T05:18:18.251Z,97959.41
2022-08-26T05:20:25.757Z,97958.88
2022-08-26T05:22:31.199Z,97965.41
2022-08-26T05:24:36.424Z,97958.19
2022-08-26T05:26:45.853Z,97958.06
2022-08-26T05:28:50.685Z,97962.38
2022-08-26T05:30:59.781Z,97962.38
2022-08-26T05:33:05.450Z,97967.53
2022-08-26T05:35:10.986Z,97964.72
2022-08-26T05:37:17.145Z,97967.66
2022-08-26T05:39:24.599Z,97967.66
2022-08-26T05:41:36.290Z,97963.47
2022-08-26T05:43:44.247Z,97961.09
2022-08-26T05:45:52.219Z,97966.00
2022-08-26T05:47:57.173Z,97973.66
2022-08-26T05:50:05.547Z,97973.50
2022-08-26T05:52:10.489Z,97966.38
2022-08-26T05:54:21.325Z,97968.91
2022-08-26T05:56:27.988Z,97966.09
2022-08-26T05:58:32.871Z,97967.53
2022-08-26T06:00:40.374Z,97975.72
2022-08-26T06:02:48.448Z,97976.69
2022-08-26T06:04:53.483Z,97971.53
2022-08-26T06:06:58.610Z,97973.31
2022-08-26T06:09:06.527Z,97975.94
2022-08-26T06:11:18.639Z,97979.84
2022-08-26T06:13:25.619Z,97977.59
2022-08-26T06:15:30.705Z,97976.19
2022-08-26T06:17:38.590Z,97979.97
2022-08-26T06:19:43.479Z,97981.34
2022-08-26T06:21:53.942Z,97986.66
2022-08-26T06:24:15.791Z,97974.63
2022-08-26T06:26:20.703Z,97976.56
2022-08-26T06:28:26.043Z,97975.56
2022-08-26T06:30:30.914Z,97977.78
2022-08-26T06:32:38.748Z,97973.28
2022-08-26T06:34:43.968Z,97974.31
2022-08-26T06:36:49.999Z,97980.94
2022-08-26T06:38:58.986Z,97975.19
2022-08-26T06:41:03.819Z,97982.16
2022-08-26T06:43:08.967Z,97981.31
2022-08-26T06:45:14.017Z,97983.53
2022-08-26T06:47:18.910Z,97983.78
2022-08-26T06:49:26.676Z,97984.88
2022-08-26T06:51:34.622Z,97977.97
2022-08-26T06:53:41.119Z,97978.97
2022-08-26T06:55:48.252Z,97977.88
2022-08-26T06:57:57.179Z,97977.75
2022-08-26T07:00:04.782Z,97972.53
2022-08-26T07:02:10.510Z,97980.41
2022-08-26T07:04:22.485Z,97980.63
2022-08-26T07:06:31.216Z,97973.41
2022-08-26T07:08:36.730Z,97978.81
2022-08-26T07:10:42.562Z,97973.41
2022-08-26T07:12:49.133Z,97975.00
2022-08-26T07:14:54.029Z,97975.09
2022-08-26T07:16:59.522Z,97975.88
2022-08-26T07:19:11.087Z,97968.59
2022-08-26T07:21:18.419Z,97963.78
2022-08-26T07:23:26.274Z,97964.69
2022-08-26T07:25:31.227Z,97975.38
2022-08-26T07:27:37.506Z,97969.25
2022-08-26T07:29:44.882Z,97967.47
2022-08-26T07:31:49.787Z,97967.16
2022-08-26T07:33:54.612Z,97967.47
2022-08-26T07:35:59.506Z,97974.44
2022-08-26T07:38:06.741Z,97972.50
2022-08-26T07:40:14.603Z,97970.00
2022-08-26T07:42:22.121Z,97979.19
2022-08-26T07:44:27.362Z,97972.34
2022-08-26T07:46:32.260Z,97972.19
2022-08-26T07:48:37.916Z,97974.19
2022-08-26T07:50:49.224Z,97973.38
2022-08-26T07:52:56.182Z,97974.75
2022-08-26T07:55:04.554Z,97976.78
2022-08-26T07:57:12.018Z,97975.94
2022-08-26T07:59:17.819Z,97975.78
2022-08-26T08:01:23.784Z,97978.63
2022-08-26T08:03:28.971Z,97972.47
2022-08-26T08:05:36.896Z,97971.44
2022-08-26T08:07:47.276Z,97970.13
2022-08-26T08:09:52.251Z,97972.81
2022-08-26T08:11:57.215Z,97976.81
2022-08-26T08:14:08.508Z,97976.13
2022-08-26T08:16:17.033Z,97967.66
2022-08-26T08:18:23.416Z,97967.31
2022-08-26T08:20:30.101Z,97970.13
2022-08-26T08:22:35.640Z,97968.00
2022-08-26T08:24:42.826Z,97959.66
2022-08-26T08:26:47.869Z,97956.97
2022-08-26T08:28:53.401Z,97959.78
2022-08-26T08:31:02.375Z,97954.59
2022-08-26T08:33:08.576Z,97956.75
2022-08-26T08:35:17.530Z,97959.09
2022-08-26T08:37:23.111Z,97970.25
2022-08-26T08:39:29.127Z,97959.56
2022-08-26T08:41:46.823Z,97964.19
2022-08-26T08:43:53.855Z,97953.19
2022-08-26T08:46:07.051Z,97959.19
2022-08-26T08:48:17.373Z,97951.16
2022-08-26T08:50:28.940Z,97953.25
2022-08-26T08:52:37.967Z,97958.06
2022-08-26T08:54:42.916Z,97955.56
2022-08-26T08:56:55.500Z,97952.53
2022-08-26T08:59:15.618Z,97952.81
2022-08-26T09:01:31.017Z,97945.59
2022-08-26T09:03:55.760Z,97939.97
2022-08-26T09:06:04.490Z,97942.09
2022-08-26T09:08:14.704Z,97934.44
2022-08-26T09:10:32.271Z,97932.19
2022-08-26T09:12:38.149Z,97930.09
2022-08-26T09:14:43.327Z,97932.44
2022-08-26T09:17:02.503Z,97934.06
2022-08-26T09:19:18.825Z,97931.28
2022-08-26T09:21:26.197Z,97930.56
2022-08-26T09:23:33.276Z,97929.50
2022-08-26T09:25:49.487Z,97917.44
2022-08-26T09:27:55.873Z,97922.53
2022-08-26T09:30:02.505Z,97919.13
2022-08-26T09:32:24.347Z,97912.66
2022-08-26T09:34:31.188Z,97918.78
2022-08-26T09:36:41.158Z,97912.44
2022-08-26T09:38:46.832Z,97916.13
2022-08-26T09:40:59.671Z,97905.91
2022-08-26T09:43:23.204Z,97912.91
2022-08-26T09:45:31.841Z,97900.06
2022-08-26T09:47:42.170Z,97903.31
2022-08-26T09:49:47.459Z,97892.69
2022-08-26T09:52:07.452Z,97886.47
2022-08-26T09:54:30.533Z,97888.06
2022-08-26T09:56:39.350Z,97882.16
2022-08-26T09:58:47.227Z,97869.09
2022-08-26T10:00:58.644Z,97866.94
2022-08-26T10:03:09.756Z,97869.50
2022-08-26T10:05:31.201Z,97857.06
2022-08-26T10:07:44.920Z,97847.41
2022-08-26T10:09:51.752Z,97843.56
2022-08-26T10:11:59.049Z,97834.78
2022-08-26T10:14:07.803Z,97833.75
2022-08-26T10:16:20.230Z,97828.31
2022-08-26T10:18:34.135Z,97826.34
2022-08-26T10:20:44.574Z,97822.47
2022-08-26T10:22:58.130Z,97822.38
2022-08-26T10:25:08.322Z,97813.88
2022-08-26T10:27:25.772Z,97816.88
2022-08-26T10:29:36.679Z,97811.00
2022-08-26T10:31:45.467Z,97806.31
2022-08-26T10:33:58.635Z,97807.97
2022-08-26T10:36:39.284Z,97799.38
2022-08-26T10:38:51.811Z,97807.88
2022-08-26T10:41:03.269Z,97800.47
2022-08-26T10:43:20.915Z,97800.84
2022-08-26T10:45:30.255Z,97805.91
2022-08-26T10:47:41.266Z,97799.22
2022-08-26T10:49:50.031Z,97795.59
2022-08-26T10:52:05.492Z,97794.59
2022-08-26T10:54:27.343Z,97798.13
2022-08-26T10:56:46.582Z,97799.59
2022-08-26T10:59:00.878Z,97794.03
2022-08-26T11:01:26.656Z,97797.38
2022-08-26T11:03:39.994Z,97788.88
2022-08-26T11:05:47.546Z,97793.63
2022-08-26T11:07:56.264Z,97791.41
2022-08-26T11:10:03.624Z,97799.28
2022-08-26T11:12:10.002Z,97783.84
2022-08-26T11:14:46.186Z,97784.94
2022-08-26T11:17:00.223Z,97781.34
2022-08-26T11:19:05.281Z,97779.06
2022-08-26T11:21:49.568Z,97779.75
2022-08-26T11:23:58.367Z,97776.69
2022-08-26T11:26:35.774Z,97770.72
2022-08-26T11:28:45.769Z,97766.19
2022-08-26T11:30:58.218Z,97763.06
2022-08-26T11:33:03.563Z,97770.06
2022-08-26T11:35:12.211Z,97771.31
2022-08-26T11:39:38.939Z,97757.91
2022-08-26T11:41:47.301Z,97753.81
2022-08-26T11:43:53.026Z,97750.91
2022-08-26T11:46:05.459Z,97738.91
2022-08-26T11:48:18.476Z,97742.66
2022-08-26T11:50:26.233Z,97743.91
2022-08-26T11:52:31.216Z,97736.47
2022-08-26T11:54:40.118Z,97739.78
2022-08-26T11:56:47.030Z,97733.59
2022-08-26T11:58:59.735Z,97726.97
2022-08-26T12:01:09.776Z,97719.50
2022-08-26T12:03:22.997Z,97722.81
2022-08-26T12:05:32.185Z,97721.56
2022-08-26T12:07:38.345Z,97722.59
2022-08-26T12:10:00.507Z,97718.31
2022-08-26T12:12:16.160Z,97715.41
2022-08-26T12:14:24.337Z,97708.78
2022-08-26T12:16:31.113Z,97708.75
2022-08-26T12:18:38.868Z,97712.06
2022-08-26T12:20:54.242Z,97705.47
2022-08-26T12:23:00.305Z,97706.94
2022-08-26T12:25:11.361Z,97708.59
2022-08-26T12:27:20.601Z,97710.84
2022-08-26T12:29:28.913Z,97706.94
2022-08-26T12:31:35.786Z,97702.19
2022-08-26T12:33:41.448Z,97700.72
2022-08-26T12:35:47.729Z,97694.72
2022-08-26T12:37:56.153Z,97690.38
2022-08-26T12:40:30.760Z,97698.03
2022-08-26T12:42:44.221Z,97688.53
2022-08-26T12:44:54.076Z,97682.72
2022-08-26T12:47:05.453Z,97682.91
2022-08-26T12:49:10.743Z,97680.22
2022-08-26T12:51:25.724Z,97674.59
2022-08-26T12:53:32.626Z,97674.84
2022-08-26T12:55:44.040Z,97664.06
2022-08-26T12:57:49.509Z,97662.59
2022-08-26T12:59:54.473Z,97658.25
2022-08-26T13:01:59.417Z,97663.44
2022-08-26T13:04:04.684Z,97659.75
2022-08-26T13:06:15.607Z,97646.69
2022-08-26T13:08:29.108Z,97643.56
2022-08-26T13:10:41.589Z,97636.97
2022-08-26T13:12:46.887Z,97630.53
2022-08-26T13:14:51.818Z,97631.16
2022-08-26T13:16:56.842Z,97630.69
2022-08-26T13:19:04.083Z,97625.50
2022-08-26T13:21:15.915Z,97628.00
2022-08-26T13:23:21.364Z,97633.03
2022-08-26T13:25:26.303Z,97634.06
2022-08-26T13:27:33.793Z,97643.78
2022-08-26T13:29:39.178Z,97642.78
2022-08-26T13:31:48.199Z,97650.88
2022-08-26T13:33:53.166Z,97652.13
2022-08-26T13:35:58.331Z,97662.69
2022-08-26T13:38:03.432Z,97659.78
2022-08-26T13:40:09.709Z,97666.81
2022-08-26T13:42:14.657Z,97663.84
2022-08-26T13:44:22.258Z,97674.72
2022-08-26T13:46:27.704Z,97692.81
2022-08-26T13:48:34.052Z,97711.28
2022-08-26T13:50:39.410Z,97709.47
2022-08-26T13:52:44.305Z,97705.25
2022-08-26T13:54:48.909Z,97712.75
2022-08-26T13:56:53.785Z,97719.19
2022-08-26T13:58:59.541Z,97751.25
2022-08-26T14:01:07.178Z,97794.94
2022-08-26T14:03:13.567Z,97814.94
2022-08-26T14:05:18.894Z,97845.06
2022-08-26T14:07:24.059Z,97823.69
2022-08-26T14:09:29.009Z,97818.69
2022-08-26T14:11:41.217Z,97843.78
2022-08-26T14:13:59.008Z,97882.81
2022-08-26T14:16:07.879Z,97925.22
2022-08-26T14:18:17.016Z,97924.00
2022-08-26T14:20:27.291Z,97893.19
2022-08-26T14:22:33.105Z,97918.47
2022-08-26T14:24:38.027Z,97920.03
2022-08-26T14:26:43.291Z,97918.56
2022-08-26T14:28:48.235Z,97902.44
2022-08-26T14:30:58.093Z,97901.91
2022-08-26T14:33:05.823Z,97920.50
2022-08-26T14:35:13.340Z,97929.34
2022-08-26T14:37:18.282Z,97913.47
2022-08-26T14:39:23.086Z,97915.03
2022-08-26T14:41:28.807Z,97898.03
2022-08-26T14:43:33.770Z,97896.03
2022-08-26T14:45:43.507Z,97884.69
2022-08-26T14:47:53.146Z,97869.31
2022-08-26T14:50:00.701Z,97857.56
2022-08-26T14:52:06.006Z,97851.16
2022-08-26T14:54:14.093Z,97841.41
2022-08-26T14:56:19.719Z,97839.78
2022-08-26T14:58:24.585Z,97821.97
2022-08-26T15:00:33.714Z,97820.59
2022-08-26T15:02:39.035Z,97813.09
2022-08-26T15:04:44.414Z,97811.28
2022-08-26T15:06:53.086Z,97816.50
2022-08-26T15:08:58.021Z,97815.94
2022-08-26T15:11:03.312Z,97829.03
2022-08-26T15:13:08.410Z,97829.56
2022-08-26T15:15:14.060Z,97857.69
2022-08-26T15:17:18.952Z,97871.53
2022-08-26T15:19:23.886Z,97881.25
2022-08-26T15:21:28.931Z,97879.34
2022-08-26T15:23:36.557Z,97892.63
2022-08-26T15:25:41.467Z,97898.25
2022-08-26T15:27:46.367Z,97893.63
2022-08-26T15:29:51.829Z,97883.19
2022-08-26T15:31:57.333Z,97907.03
2022-08-26T15:34:04.135Z,97905.50
2022-08-26T15:36:11.272Z,97906.16
2022-08-26T15:38:16.118Z,97904.78
2022-08-26T15:40:23.766Z,97890.28
2022-08-26T15:42:28.731Z,97888.50
2022-08-26T15:44:34.177Z,97880.16
2022-08-26T15:46:39.720Z,97883.59
2022-08-26T15:48:45.419Z,97885.00
2022-08-26T15:50:54.142Z,97880.25
2022-08-26T15:52:59.693Z,97870.59
2022-08-26T15:55:04.680Z,97855.06
2022-08-26T15:57:14.399Z,97841.69
2022-08-26T15:59:21.070Z,97843.63
2022-08-26T16:01:27.717Z,97831.06
2022-08-26T16:03:33.069Z,97836.22
2022-08-26T16:05:40.711Z,97836.75
2022-08-26T16:07:45.655Z,97829.63
2022-08-26T16:09:54.045Z,97831.16
2022-08-26T16:12:00.195Z,97823.75
2022-08-26T16:14:08.439Z,97823.16
2022-08-26T16:16:13.663Z,97820.91
2022-08-26T16:18:20.447Z,97817.81
2022-08-26T16:20:28.852Z,97813.09
2022-08-26T16:22:33.946Z,97816.81
2022-08-26T16:24:39.687Z,97823.25
2022-08-26T16:26:46.250Z,97817.00
2022-08-26T16:28:51.436Z,97823.25
2022-08-26T16:30:59.098Z,97825.59
2022-08-26T16:33:03.978Z,97820.47
2022-08-26T16:35:10.157Z,97824.94
2022-08-26T16:37:14.998Z,97818.66
2022-08-26T16:39:19.967Z,97804.56
2022-08-26T16:41:25.649Z,97801.81
2022-08-26T16:43:31.143Z,97796.28
2022-08-26T16:45:38.250Z,97790.81
2022-08-26T16:47:49.814Z,97789.84
2022-08-26T16:49:54.833Z,97787.88
2022-08-26T16:51:59.851Z,97777.56
2022-08-26T16:54:05.878Z,97776.44
2022-08-26T16:56:17.069Z,97775.00
2022-08-26T16:58:22.801Z,97768.47
2022-08-26T17:00:30.482Z,97774.09
2022-08-26T17:02:35.491Z,97758.34
2022-08-26T17:04:47.140Z,97764.06
2022-08-26T17:06:55.448Z,97751.56
2022-08-26T17:09:00.148Z,97757.69
2022-08-26T17:11:05.076Z,97765.38
2022-08-26T17:13:10.078Z,97761.44
2022-08-26T17:15:15.533Z,97767.84
2022-08-26T17:17:20.705Z,97766.31
2022-08-26T17:19:25.630Z,97780.09
2022-08-26T17:21:35.034Z,97799.25
2022-08-26T17:23:41.016Z,97818.66
2022-08-26T17:25:46.143Z,97822.16
2022-08-26T17:27:50.859Z,97808.78
2022-08-26T17:29:55.826Z,97812.13
2022-08-26T17:32:00.718Z,97820.44
2022-08-26T17:34:05.698Z,97826.16
2022-08-26T17:36:12.035Z,97817.50
2022-08-26T17:38:19.545Z,97810.03
2022-08-26T17:40:29.267Z,97803.03
2022-08-26T17:42:34.283Z,97796.31
2022-08-26T17:44:39.227Z,97799.66
2022-08-26T17:46:44.145Z,97804.25
2022-08-26T17:48:49.765Z,97790.59
2022-08-26T17:50:54.832Z,97802.72
2022-08-26T17:53:00.466Z,97819.03
2022-08-26T17:55:08.934Z,97844.22
2022-08-26T17:57:13.768Z,97847.72
2022-08-26T17:59:19.019Z,97847.63
2022-08-26T18:01:26.166Z,97856.13
2022-08-26T18:03:31.267Z,97865.75
2022-08-26T18:05:36.262Z,97865.63
2022-08-26T18:07:44.089Z,97862.56
2022-08-26T18:09:49.264Z,97857.84
2022-08-26T18:11:57.231Z,97859.09
2022-08-26T18:14:02.835Z,97853.78
2022-08-26T18:16:09.038Z,97855.72
2022-08-26T18:18:14.542Z,97848.91
2022-08-26T18:20:22.662Z,97853.75
2022-08-26T18:22:27.649Z,97858.81
2022-08-26T18:24:32.938Z,97860.63
2022-08-26T18:26:44.637Z,97870.94
2022-08-26T18:28:52.592Z,97869.97
2022-08-26T18:30:57.533Z,97877.91
2022-08-26T18:33:03.188Z,97875.09
2022-08-26T18:35:09.014Z,97875.09
2022-08-26T18:37:14.765Z,97874.16
2022-08-26T18:39:22.165Z,97878.59
2022-08-26T18:41:30.339Z,97877.03
2022-08-26T18:43:36.317Z,97881.78
2022-08-26T18:45:43.916Z,97879.38
2022-08-26T18:47:48.881Z,97885.09
2022-08-26T18:49:53.816Z,97885.63
2022-08-26T18:51:58.802Z,97887.72
2022-08-26T18:54:06.985Z,97897.91
2022-08-26T18:56:13.258Z,97895.56
2022-08-26T18:58:20.545Z,97885.38
2022-08-26T19:00:25.743Z,97886.88
2022-08-26T19:02:33.412Z,97877.50
2022-08-26T19:04:38.440Z,97876.25
2022-08-26T19:06:44.225Z,97877.91
2022-08-26T19:08:50.196Z,97873.06
2022-08-26T19:10:55.195Z,97870.25
2022-08-26T19:13:02.402Z,97871.25
2022-08-26T19:15:08.670Z,97876.69
2022-08-26T19:17:14.385Z,97875.56
2022-08-26T19:19:23.915Z,97872.38
2022-08-26T19:21:28.793Z,97876.94
2022-08-26T19:23:34.099Z,97875.81
2022-08-26T19:25:43.362Z,97878.16
2022-08-26T19:27:48.473Z,97881.38
2022-08-26T19:29:53.090Z,97878.72
2022-08-26T19:31:58.791Z,97878.44
2022-08-26T19:34:05.401Z,97880.94
2022-08-26T19:36:17.495Z,97880.50
2022-08-26T19:38:22.382Z,97879.50
2022-08-26T19:40:27.570Z,97874.75
2022-08-26T19:42:32.455Z,97880.91
2022-08-26T19:44:49.786Z,97887.56
2022-08-26T19:46:54.939Z,97883.84
2022-08-26T19:49:00.771Z,97893.44
2022-08-26T19:51:05.967Z,97894.00
2022-08-26T19:53:13.493Z,97895.88
2022-08-26T19:55:20.927Z,97904.97
2022-08-26T19:57:25.856Z,97909.47
2022-08-26T19:59:33.098Z,97915.22
2022-08-26T20:01:38.243Z,97913.41
2022-08-26T20:03:45.134Z,97914.81
2022-08-26T20:05:50.143Z,97916.47
2022-08-26T20:07:55.335Z,97909.31
2022-08-26T20:10:03.603Z,97897.00
2022-08-26T20:12:10.650Z,97900.06
2022-08-26T20:14:16.794Z,97891.53
2022-08-26T20:16:23.136Z,97885.09
2022-08-26T20:18:40.896Z,97894.06
2022-08-26T20:20:58.257Z,97897.38
2022-08-26T20:23:05.273Z,97913.47
2022-08-26T20:25:13.522Z,97927.47
2022-08-26T20:27:18.475Z,97957.47
2022-08-26T20:29:23.385Z,97973.06
2022-08-26T20:31:30.030Z,97966.75
2022-08-26T20:33:39.854Z,97970.59
2022-08-26T20:35:51.595Z,97973.91
2022-08-26T20:37:56.575Z,97969.88
2022-08-26T20:40:01.271Z,97969.22
2022-08-26T20:42:20.026Z,97964.22
2022-08-26T20:44:25.746Z,97976.88
2022-08-26T20:46:31.177Z,97974.50
2022-08-26T20:48:36.263Z,97978.69
2022-08-26T20:50:41.828Z,97974.94
2022-08-26T20:52:46.849Z,97987.88
2022-08-26T20:54:51.763Z,97982.22
2022-08-26T20:56:57.683Z,97989.38
2022-08-26T20:59:06.808Z,97996.59
2022-08-26T21:01:20.055Z,98002.22
2022-08-26T21:03:25.818Z,98000.22
2022-08-26T21:05:30.736Z,98004.28
2022-08-26T21:07:35.654Z,98008.06
2022-08-26T21:09:41.379Z,98004.44
2022-08-26T21:11:47.683Z,98007.63
2022-08-26T21:14:17.100Z,98009.88
2022-08-26T21:16:20.297Z,98001.94
2022-08-26T21:18:25.225Z,98002.13
2022-08-26T21:20:30.631Z,98004.66
2022-08-26T21:22:35.589Z,98003.28
2022-08-26T21:24:40.482Z,97999.13
2022-08-26T21:26:45.970Z,97987.72
2022-08-26T21:28:50.939Z,97990.66
2022-08-26T21:30:55.595Z,97989.28
2022-08-26T21:33:03.166Z,97989.97
2022-08-26T21:35:08.976Z,97978.59
2022-08-26T21:37:15.358Z,97978.38
2022-08-26T21:39:21.987Z,97976.97
2022-08-26T21:41:28.036Z,97981.78
2022-08-26T21:43:34.944Z,97977.69
2022-08-26T21:45:42.811Z,97966.84
2022-08-26T21:47:47.902Z,97958.25
2022-08-26T21:49:55.880Z,97961.66
2022-08-26T21:52:01.729Z,97948.63
2022-08-26T21:54:11.416Z,97941.13
2022-08-26T21:56:19.129Z,97944.88
2022-08-26T21:58:23.985Z,97946.69
2022-08-26T22:00:28.847Z,97943.88
2022-08-26T22:02:34.739Z,97947.50
2022-08-26T22:04:39.607Z,97952.38
2022-08-26T22:06:48.879Z,97960.41
2022-08-26T22:08:54.117Z,97955.56
2022-08-26T22:11:00.131Z,97955.09
2022-08-26T22:13:06.499Z,97955.25
2022-08-26T22:15:12.639Z,97949.88
2022-08-26T22:17:17.707Z,97950.34
2022-08-26T22:19:23.461Z,97943.44
2022-08-26T22:21:30.654Z,97940.91
2022-08-26T22:23:39.257Z,97931.19
2022-08-26T22:25:44.131Z,97929.66
2022-08-26T22:27:49.029Z,97936.13
2022-08-26T22:29:54.160Z,97932.72
2022-08-26T22:32:00.040Z,97926.19
2022-08-26T22:34:06.484Z,97929.00
2022-08-26T22:36:19.004Z,97921.19
2022-08-26T22:38:25.796Z,97908.78
2022-08-26T22:40:34.826Z,97907.69
2022-08-26T22:42:39.871Z,97898.47
2022-08-26T22:44:44.744Z,97898.09
2022-08-26T22:46:50.294Z,97893.22
2022-08-26T22:48:56.031Z,97893.63
2022-08-26T22:51:00.952Z,97884.56
2022-08-26T22:53:06.397Z,97885.84
2022-08-26T22:55:13.145Z,97887.22
2022-08-26T22:57:20.643Z,97878.59
2022-08-26T22:59:25.590Z,97879.16
2022-08-26T23:01:30.958Z,97871.63
2022-08-26T23:03:36.426Z,97868.03
2022-08-26T23:05:41.978Z,97870.53
2022-08-26T23:07:46.821Z,97870.66
2022-08-26T23:09:51.725Z,97875.66
2022-08-26T23:11:56.726Z,97871.75
2022-08-26T23:14:06.278Z,97875.94
2022-08-26T23:16:13.582Z,97868.13
2022-08-26T23:18:19.151Z,97873.81
2022-08-26T23:20:24.081Z,97872.66
2022-08-26T23:22:29.084Z,97872.41
2022-08-26T23:24:33.995Z,97866.69
2022-08-26T23:26:39.322Z,97870.44
2022-08-26T23:28:44.230Z,97866.38
2022-08-26T23:30:51.746Z,97869.75
2022-08-26T23:32:57.092Z,97865.72
2022-08-26T23:34:59.694Z,97866.03
2022-08-26T23:37:06.760Z,97864.81
2022-08-26T23:39:12.954Z,97862.28
2022-08-26T23:41:18.110Z,97874.13
2022-08-26T23:43:23.141Z,97874.28
2022-08-26T23:45:29.448Z,97874.94
2022-08-26T23:47:37.497Z,97882.34
2022-08-26T23:49:42.517Z,97884.31
2022-08-26T23:52:00.016Z,97887.22
2022-08-26T23:54:05.150Z,97891.25
2022-08-26T23:56:16.510Z,97897.94
2022-08-26T23:58:23.152Z,97903.78
